Time;durP1;ratioP1;P1;durP2;ratioP2;P2;SDS_P1;SDS_P2;PMS_P1;PMS_P2;Temp;Humidity;BMP_temperature;BMP_pressure;BME280_temperature;BME280_humidity;BME280_pressure;Samples;Min_cycle;Max_cycle;Signal;HPM_P1;HPM_P2
2021/05/11 00:01:09;;;;;;;2.72;1.10;;;15.40;71.80;;;;;;5019535;28;20408;-71
2021/05/11 00:03:35;;;;;;;1.65;0.90;;;15.40;70.40;;;;;;5019804;28;20097;-71
2021/05/11 00:06:02;;;;;;;3.80;1.17;;;15.40;70.80;;;;;;5019416;28;20038;-71
2021/05/11 00:08:27;;;;;;;3.90;1.15;;;15.50;71.10;;;;;;5019431;28;20018;-70
2021/05/11 00:10:53;;;;;;;4.82;1.02;;;15.40;69.00;;;;;;5019356;28;20026;-71
2021/05/11 00:13:19;;;;;;;4.47;1.20;;;15.40;69.80;;;;;;5019699;28;20022;-71
2021/05/11 00:15:45;;;;;;;3.60;1.00;;;15.40;70.10;;;;;;5019204;28;20330;-72
2021/05/11 00:18:13;;;;;;;3.65;0.90;;;15.30;69.50;;;;;;5019603;28;20033;-71
2021/05/11 00:20:39;;;;;;;2.63;0.93;;;15.20;69.10;;;;;;5019177;28;20112;-73
2021/05/11 00:23:04;;;;;;;1.85;0.82;;;15.20;69.30;;;;;;5019194;28;20063;-71
2021/05/11 00:25:30;;;;;;;2.05;0.77;;;15.10;68.40;;;;;;5018840;28;20050;-73
2021/05/11 00:27:56;;;;;;;2.03;0.70;;;15.00;68.60;;;;;;5019002;28;20041;-71
2021/05/11 00:30:22;;;;;;;1.73;0.75;;;15.00;68.50;;;;;;5019000;28;20041;-71
2021/05/11 00:32:49;;;;;;;1.38;0.77;;;15.10;69.80;;;;;;5019342;28;20108;-71
2021/05/11 00:35:15;;;;;;;1.20;0.70;;;15.00;70.70;;;;;;5018755;28;20026;-71
2021/05/11 00:37:41;;;;;;;3.88;1.20;;;14.90;71.10;;;;;;5019126;28;20424;-71
2021/05/11 00:40:08;;;;;;;3.85;0.80;;;14.90;72.20;;;;;;5018836;28;20052;-71
2021/05/11 00:42:34;;;;;;;3.47;1.20;;;14.80;72.00;;;;;;5018783;28;20449;-71
2021/05/11 00:45:00;;;;;;;2.47;0.80;;;14.70;72.60;;;;;;5018654;28;20034;-71
2021/05/11 00:47:26;;;;;;;2.40;0.80;;;14.70;73.20;;;;;;5018909;28;20105;-71
2021/05/11 00:49:52;;;;;;;1.20;0.77;;;14.60;72.20;;;;;;5018639;28;20061;-71
2021/05/11 00:52:17;;;;;;;2.10;1.10;;;14.60;72.70;;;;;;5018915;28;20102;-71
2021/05/11 00:54:44;;;;;;;4.35;0.90;;;14.60;72.40;;;;;;5018554;28;20026;-71
2021/05/11 00:57:10;;;;;;;1.55;0.77;;;14.70;71.90;;;;;;5018815;28;20034;-71
2021/05/11 00:59:37;;;;;;;2.17;1.00;;;14.70;71.60;;;;;;5018690;28;20034;-71
2021/05/11 01:02:05;;;;;;;4.80;1.15;;;14.70;71.60;;;;;;5018699;28;20033;-71
2021/05/11 01:04:31;;;;;;;3.17;1.58;;;14.80;72.30;;;;;;5018318;28;20418;-71
2021/05/11 01:06:57;;;;;;;2.83;1.00;;;14.90;72.60;;;;;;5018252;28;20022;-71
2021/05/11 01:09:24;;;;;;;2.35;1.10;;;14.90;74.10;;;;;;5018278;28;20068;-71
2021/05/11 01:11:50;;;;;;;2.50;0.98;;;15.10;75.50;;;;;;5018564;28;20026;-71
2021/05/11 01:14:16;;;;;;;4.00;1.20;;;15.20;74.30;;;;;;5018404;28;20029;-71
2021/05/11 01:16:44;;;;;;;3.00;1.00;;;15.30;74.60;;;;;;5018114;28;20033;-71
2021/05/11 01:24:05;;;;;;;2.30;1.17;;;15.40;73.40;;;;;;5018309;28;20034;-71
2021/05/11 01:57:25;;;;;;;3.83;1.88;;;15.50;73.70;;;;;;5017442;28;20303;-71
2021/05/11 02:23:29;;;;;;;1.75;0.88;;;15.20;74.40;;;;;;5017448;28;20041;-70
2021/05/11 02:25:56;;;;;;;2.35;1.02;;;15.10;75.50;;;;;;5016639;28;20057;-72
2021/05/11 02:28:23;;;;;;;3.97;1.20;;;15.10;74.90;;;;;;5017276;28;20030;-73
2021/05/11 02:30:49;;;;;;;2.90;1.20;;;15.00;73.90;;;;;;5017263;28;20377;-73
2021/05/11 02:33:15;;;;;;;4.70;1.50;;;15.00;75.10;;;;;;5017315;28;20029;-73
2021/05/11 02:35:41;;;;;;;3.10;1.00;;;14.90;75.40;;;;;;5016832;28;20105;-71
2021/05/11 02:38:07;;;;;;;3.33;1.15;;;14.80;74.70;;;;;;5017227;28;20045;-71
2021/05/11 02:40:32;;;;;;;4.15;1.55;;;14.70;76.40;;;;;;5017140;28;20415;-71
2021/05/11 02:43:08;;;;;;;4.13;1.20;;;14.70;76.00;;;;;;5016895;28;20060;-73
2021/05/11 02:45:35;;;;;;;4.43;1.15;;;14.80;75.10;;;;;;5017101;28;20117;-73
2021/05/11 02:48:01;;;;;;;4.07;1.10;;;14.80;74.70;;;;;;5017066;28;20370;-71
2021/05/11 02:50:30;;;;;;;3.90;1.20;;;14.80;73.00;;;;;;5016768;28;20061;-71
2021/05/11 02:52:56;;;;;;;2.65;1.00;;;14.90;72.80;;;;;;5017073;28;20300;-71
2021/05/11 02:55:22;;;;;;;2.70;0.95;;;15.00;72.60;;;;;;5016987;28;20042;-73
2021/05/11 02:57:49;;;;;;;3.58;1.30;;;15.10;73.80;;;;;;5016993;28;20041;-73
2021/05/11 03:00:18;;;;;;;4.13;1.40;;;15.20;74.60;;;;;;5019944;28;20029;-73
2021/05/11 03:02:44;;;;;;;3.05;0.88;;;15.20;74.40;;;;;;5020691;28;20066;-73
2021/05/11 03:05:11;;;;;;;3.00;0.98;;;15.20;74.20;;;;;;5020552;28;20037;-71
2021/05/11 03:07:37;;;;;;;3.13;1.17;;;15.10;74.10;;;;;;5020772;28;20109;-73
2021/05/11 03:10:05;;;;;;;2.15;0.90;;;15.20;73.20;;;;;;5020786;28;20110;-73
2021/05/11 03:12:31;;;;;;;2.25;0.98;;;15.20;73.10;;;;;;5020816;28;20018;-73
2021/05/11 03:14:57;;;;;;;4.28;1.08;;;15.20;72.90;;;;;;5020374;28;20433;-73
2021/05/11 03:17:23;;;;;;;1.25;0.95;;;15.20;72.50;;;;;;5020420;28;20076;-71
2021/05/11 03:19:48;;;;;;;3.08;0.82;;;15.30;73.20;;;;;;5020667;28;20026;-71
2021/05/11 03:22:14;;;;;;;3.63;1.00;;;15.30;75.10;;;;;;5020617;28;20061;-73
2021/05/11 03:24:44;;;;;;;3.38;1.05;;;15.20;75.60;;;;;;5020187;28;20065;-73
2021/05/11 03:27:11;;;;;;;4.47;1.02;;;15.20;75.70;;;;;;5020184;28;20034;-71
2021/05/11 03:29:37;;;;;;;4.90;1.77;;;15.20;74.60;;;;;;5020188;28;20033;-73
2021/05/11 03:32:03;;;;;;;2.05;1.17;;;15.10;75.20;;;;;;5020468;28;20321;-73
2021/05/11 03:34:29;;;;;;;4.03;1.40;;;15.10;76.30;;;;;;5019037;28;20025;-73
2021/05/11 03:36:55;;;;;;;2.78;1.13;;;15.10;76.70;;;;;;5020312;28;20072;-73
2021/05/11 03:39:20;;;;;;;3.42;1.30;;;15.10;75.90;;;;;;5020351;28;20140;-71
2021/05/11 03:41:51;;;;;;;5.63;1.20;;;15.20;76.60;;;;;;5019970;28;20487;-71
2021/05/11 03:44:23;;;;;;;2.03;0.95;;;15.20;77.50;;;;;;5019861;28;20038;-71
2021/05/11 03:46:48;;;;;;;1.50;0.90;;;15.20;78.20;;;;;;5020118;28;20037;-71
2021/05/11 03:49:14;;;;;;;2.80;1.00;;;15.20;77.80;;;;;;5020110;28;20030;-71
2021/05/11 03:51:41;;;;;;;4.45;1.10;;;15.30;77.70;;;;;;5019782;28;20029;-71
2021/05/11 03:54:08;;;;;;;2.05;1.13;;;15.30;76.80;;;;;;5020010;28;20102;-71
2021/05/11 03:56:34;;;;;;;3.10;1.23;;;15.30;77.10;;;;;;5020157;28;20034;-71
2021/05/11 03:59:00;;;;;;;3.00;1.10;;;15.30;77.60;;;;;;5019950;28;20025;-71
2021/05/11 04:01:26;;;;;;;3.80;1.17;;;15.30;77.40;;;;;;5019594;28;20038;-71
2021/05/11 04:03:52;;;;;;;9.60;1.40;;;15.40;77.50;;;;;;5019797;28;20033;-73
2021/05/11 04:06:18;;;;;;;3.95;1.15;;;15.40;76.20;;;;;;5019690;28;20030;-73
2021/05/11 04:09:03;;;;;;;3.05;1.40;;;15.40;76.90;;;;;;5019772;28;20352;-73
2021/05/11 04:16:40;;;;;;;4.60;1.20;;;15.50;77.50;;;;;;5019303;28;20034;-71
2021/05/11 04:19:06;;;;;;;2.70;1.15;;;15.50;77.70;;;;;;5019587;28;20080;-71
2021/05/11 04:21:32;;;;;;;1.65;0.95;;;15.40;77.60;;;;;;5019246;28;20361;-71
2021/05/11 04:23:58;;;;;;;3.13;1.15;;;15.30;78.20;;;;;;5019127;28;20026;-71
2021/05/11 04:26:23;;;;;;;2.63;1.60;;;15.20;76.40;;;;;;5018840;28;20045;-71
2021/05/11 04:28:50;;;;;;;3.33;2.15;;;15.20;77.80;;;;;;5019090;28;20322;-71
2021/05/11 04:31:17;;;;;;;6.00;1.20;;;15.20;76.80;;;;;;5019017;28;20030;-71
2021/05/11 04:33:43;;;;;;;4.55;1.35;;;15.20;75.10;;;;;;5018962;28;20100;-71
2021/05/11 04:36:09;;;;;;;3.08;1.40;;;15.30;75.40;;;;;;5018918;28;20022;-71
2021/05/11 04:38:37;;;;;;;7.53;1.60;;;15.40;75.80;;;;;;5019186;28;20022;-71
2021/05/11 04:41:03;;;;;;;3.42;1.33;;;15.50;76.20;;;;;;5019103;28;20034;-71
2021/05/11 04:43:30;;;;;;;2.53;1.27;;;15.50;76.50;;;;;;5019140;28;20025;-71
2021/05/11 04:48:30;;;;;;;4.07;1.30;;;15.60;76.00;;;;;;5018785;28;20036;-71
2021/05/11 04:50:57;;;;;;;3.50;1.13;;;15.70;72.50;;;;;;5018647;28;20482;-71
2021/05/11 04:53:23;;;;;;;4.30;1.20;;;15.90;73.70;;;;;;5018620;28;20418;-71
2021/05/11 04:55:49;;;;;;;2.75;1.27;;;15.90;73.20;;;;;;5018875;28;20045;-71
2021/05/11 04:58:15;;;;;;;2.17;1.13;;;15.90;74.10;;;;;;5018455;28;20034;-71
2021/05/11 05:00:41;;;;;;;3.13;1.73;;;16.00;74.20;;;;;;5018792;28;20036;-71
2021/05/11 05:03:09;;;;;;;3.17;1.27;;;16.10;75.40;;;;;;5018472;28;20026;-71
2021/05/11 05:05:35;;;;;;;4.10;1.30;;;16.20;74.10;;;;;;5018292;28;20080;-71
2021/05/11 05:08:01;;;;;;;2.88;1.40;;;16.40;70.70;;;;;;5018601;28;20025;-71
2021/05/11 05:10:26;;;;;;;2.97;1.30;;;16.50;71.30;;;;;;5018284;28;20026;-71
2021/05/11 05:12:52;;;;;;;3.22;1.13;;;16.70;66.70;;;;;;5018279;28;20072;-71
2021/05/11 05:15:18;;;;;;;4.97;1.10;;;16.90;66.10;;;;;;5018454;28;20121;-71
2021/05/11 05:17:44;;;;;;;4.97;1.27;;;17.10;66.20;;;;;;5018453;28;20026;-71
2021/05/11 05:20:10;;;;;;;5.03;1.45;;;17.30;67.20;;;;;;5018091;28;20033;-71
2021/05/11 05:22:37;;;;;;;2.75;0.88;;;17.40;66.30;;;;;;5018677;28;20322;-71
2021/05/11 05:25:17;;;;;;;2.95;1.05;;;17.70;64.40;;;;;;5017739;28;20084;-71
2021/05/11 05:27:56;;;;;;;3.75;1.00;;;17.80;64.40;;;;;;5018263;28;20322;-71
2021/05/11 05:30:23;;;;;;;3.25;0.90;;;18.10;63.70;;;;;;5017964;28;20045;-71
2021/05/11 05:32:48;;;;;;;1.95;1.10;;;18.20;63.90;;;;;;5018228;28;20026;-71
2021/05/11 05:35:14;;;;;;;3.75;1.20;;;18.30;62.30;;;;;;5017779;28;20044;-71
2021/05/11 05:37:40;;;;;;;3.35;1.05;;;18.20;62.40;;;;;;5017813;28;20026;-71
2021/05/11 05:40:09;;;;;;;3.33;1.10;;;18.10;63.80;;;;;;5018020;28;20041;-71
2021/05/11 05:42:34;;;;;;;2.92;1.10;;;18.10;64.00;;;;;;5018081;28;20029;-71
2021/05/11 05:45:00;;;;;;;2.42;1.10;;;18.10;65.20;;;;;;5017932;28;20318;-71
2021/05/11 05:47:26;;;;;;;4.53;1.00;;;18.10;66.30;;;;;;5017853;28;20108;-71
2021/05/11 05:49:59;;;;;;;4.85;1.30;;;18.10;65.90;;;;;;5017846;28;20128;-71
2021/05/11 05:52:34;;;;;;;5.68;1.20;;;18.30;66.70;;;;;;5017573;28;20030;-71
2021/05/11 05:55:02;;;;;;;2.88;0.95;;;18.40;66.70;;;;;;5017851;28;20096;-71
2021/05/11 05:57:28;;;;;;;3.35;1.52;;;18.50;64.10;;;;;;5017773;28;20049;-71
2021/05/11 05:59:53;;;;;;;2.80;1.20;;;18.50;65.30;;;;;;5017699;28;20353;-71
2021/05/11 06:02:21;;;;;;;3.35;1.30;;;18.50;66.40;;;;;;5017455;28;20057;-71
2021/05/11 06:04:47;;;;;;;3.03;1.30;;;18.40;66.60;;;;;;5017327;28;20033;-71
2021/05/11 06:07:14;;;;;;;4.15;1.00;;;18.20;66.00;;;;;;5017186;28;20098;-71
2021/05/11 06:09:40;;;;;;;2.92;1.50;;;18.00;65.90;;;;;;5017307;28;20080;-71
2021/05/11 06:12:10;;;;;;;2.03;0.95;;;18.00;66.50;;;;;;5017532;28;20022;-71
2021/05/11 06:17:17;;;;;;;4.45;1.00;;;18.10;68.20;;;;;;5017562;28;20030;-71
2021/05/11 06:19:45;;;;;;;6.03;1.77;;;18.10;67.30;;;;;;5017448;28;20030;-71
2021/05/11 06:22:11;;;;;;;4.10;1.05;;;18.10;66.70;;;;;;5017446;28;20354;-71
2021/05/11 06:24:37;;;;;;;3.05;1.20;;;18.20;68.80;;;;;;5032186;28;20320;-71
2021/05/11 06:27:03;;;;;;;2.97;1.35;;;18.20;70.00;;;;;;5017280;28;20037;-71
2021/05/11 06:29:31;;;;;;;3.22;1.23;;;18.20;72.30;;;;;;5016971;28;20067;-71
2021/05/11 06:31:57;;;;;;;1.70;1.00;;;18.30;71.70;;;;;;5017323;28;20022;-71
2021/05/11 06:34:22;;;;;;;5.68;1.17;;;18.20;73.40;;;;;;5016784;28;20033;-71
2021/05/11 06:36:48;;;;;;;3.42;1.33;;;18.20;74.60;;;;;;5016890;28;20029;-71
2021/05/11 06:39:15;;;;;;;4.88;1.60;;;18.10;75.10;;;;;;5017203;28;20041;-71
2021/05/11 06:41:45;;;;;;;3.75;1.42;;;18.00;72.60;;;;;;5016875;28;20208;-71
2021/05/11 06:44:24;;;;;;;7.40;1.45;;;17.90;72.00;;;;;;5032224;28;20030;-71
2021/05/11 06:54:13;;;;;;;5.38;1.60;;;17.30;77.20;;;;;;5016763;28;20108;-71
2021/05/11 06:56:42;;;;;;;6.32;1.92;;;17.20;76.50;;;;;;5016618;28;20419;-71
2021/05/11 06:59:08;;;;;;;5.15;1.77;;;17.00;75.40;;;;;;5016725;28;20109;-71
2021/05/11 07:01:33;;;;;;;3.28;1.75;;;16.80;77.10;;;;;;5016737;28;20053;-71
2021/05/11 07:03:59;;;;;;;5.00;2.35;;;16.70;76.30;;;;;;5016624;28;20030;-71
2021/05/11 07:06:25;;;;;;;4.30;1.90;;;16.70;76.10;;;;;;5016850;28;20105;-71
2021/05/11 07:08:58;;;;;;;3.90;1.80;;;16.70;75.90;;;;;;5016619;28;20406;-72
2021/05/11 07:11:29;;;;;;;4.70;1.77;;;16.70;76.60;;;;;;5016617;28;20030;-71
2021/05/11 07:13:55;;;;;;;5.30;2.10;;;16.70;76.30;;;;;;5016549;28;20026;-71
2021/05/11 07:16:21;;;;;;;8.23;2.65;;;16.80;78.80;;;;;;5016858;28;20029;-71
2021/05/11 07:18:47;;;;;;;3.10;2.13;;;16.90;76.80;;;;;;5016582;28;20398;-71
2021/05/11 07:21:13;;;;;;;6.05;2.10;;;17.00;77.70;;;;;;5016492;28;20029;-71
2021/05/11 07:23:39;;;;;;;4.70;2.28;;;17.00;77.70;;;;;;5016758;28;20034;-71
2021/05/11 07:28:44;;;;;;;5.32;3.00;;;17.30;73.80;;;;;;5016503;28;20117;-71
2021/05/11 07:31:11;;;;;;;5.57;2.50;;;17.50;71.90;;;;;;5016453;28;20410;-71
2021/05/11 07:36:06;;;;;;;6.13;2.78;;;17.60;75.60;;;;;;5016716;28;20488;-71
2021/05/11 07:38:32;;;;;;;6.32;2.35;;;17.60;74.60;;;;;;5016375;28;20018;-71
2021/05/11 07:40:58;;;;;;;4.60;2.10;;;17.50;73.60;;;;;;5016598;28;20080;-71
2021/05/11 07:43:24;;;;;;;2.88;2.10;;;17.30;73.40;;;;;;5016658;28;20410;-71
2021/05/11 07:56:43;;;;;;;7.40;2.45;;;16.60;78.50;;;;;;5020230;28;20380;-71
2021/05/11 08:15:27;;;;;;;4.82;2.40;;;17.10;76.40;;;;;;5019619;28;20052;-71
2021/05/11 08:21:58;;;;;;;4.60;2.42;;;17.30;74.10;;;;;;5019475;28;20040;-71
2021/05/11 08:28:41;;;;;;;4.00;2.40;;;17.60;73.00;;;;;;5019419;28;20145;-71
2021/05/11 08:31:07;;;;;;;5.03;2.53;;;17.70;74.20;;;;;;5019330;28;20072;-71
2021/05/11 08:33:33;;;;;;;5.45;2.58;;;17.70;73.40;;;;;;5018951;28;20026;-71
2021/05/11 08:35:59;;;;;;;7.55;2.67;;;17.80;73.60;;;;;;5018989;28;20414;-71
2021/05/11 08:38:25;;;;;;;6.00;2.35;;;17.80;74.00;;;;;;5018892;28;20032;-71
2021/05/11 08:40:51;;;;;;;7.93;3.10;;;17.80;73.30;;;;;;5019159;28;20050;-71
2021/05/11 08:43:37;;;;;;;5.25;2.72;;;17.80;72.90;;;;;;5018924;28;20061;-71
2021/05/11 08:46:07;;;;;;;6.95;3.92;;;17.80;73.80;;;;;;5019107;28;20104;-71
2021/05/11 08:48:34;;;;;;;5.70;3.08;;;17.80;72.20;;;;;;5018735;28;20061;-71
2021/05/11 09:23:33;;;;;;;7.68;2.80;;;16.70;80.30;;;;;;5018195;28;20460;-73
2021/05/11 09:30:03;;;;;;;6.20;2.80;;;16.50;82.40;;;;;;5017996;28;20018;-73
2021/05/11 09:32:40;;;;;;;6.20;3.30;;;16.40;84.20;;;;;;5018290;28;20030;-73
2021/05/11 09:54:29;;;;;;;5.30;1.83;;;15.30;82.60;;;;;;5017833;28;20026;-73
2021/05/11 10:14:35;;;;;;;5.53;2.55;;;16.60;74.00;;;;;;5017035;28;20480;-72
2021/05/11 10:41:09;;;;;;;4.00;1.63;;;15.90;79.40;;;;;;5017832;28;20036;-72
2021/05/11 10:48:35;;;;;;;2.55;1.50;;;15.80;78.00;;;;;;5016787;28;20377;-72
2021/05/11 10:51:22;;;;;;;3.55;1.60;;;16.00;75.90;;;;;;5016771;28;20045;-72
2021/05/11 10:54:01;;;;;;;6.35;1.80;;;16.00;77.00;;;;;;5016776;28;20022;-72
2021/05/11 10:56:35;;;;;;;7.28;2.00;;;16.10;77.40;;;;;;5017247;28;20026;-72
2021/05/11 11:01:46;;;;;;;5.68;1.30;;;16.00;76.60;;;;;;5016781;28;20029;-72
2021/05/11 11:04:12;;;;;;;3.30;1.80;;;16.10;74.40;;;;;;5016970;28;20037;-72
2021/05/11 11:06:59;;;;;;;2.63;1.20;;;16.30;74.60;;;;;;5016634;28;20295;-72
2021/05/11 11:09:36;;;;;;;3.58;1.27;;;16.40;74.10;;;;;;5016971;28;20438;-72
2021/05/11 11:12:04;;;;;;;4.40;1.30;;;16.50;72.90;;;;;;5016703;28;20080;-72
2021/05/11 11:14:36;;;;;;;6.78;1.40;;;16.60;73.80;;;;;;5016800;28;20026;-72
2021/05/11 11:17:05;;;;;;;2.28;1.40;;;16.50;73.40;;;;;;5016556;28;20030;-72
2021/05/11 11:19:31;;;;;;;1.70;0.75;;;16.60;73.70;;;;;;5016932;28;20038;-72
2021/05/11 11:24:36;;;;;;;3.63;1.27;;;16.90;71.40;;;;;;5020544;28;20168;-72
2021/05/11 11:27:02;;;;;;;7.10;1.73;;;17.10;72.50;;;;;;5020010;28;20474;-72
2021/05/11 11:29:28;;;;;;;4.93;2.58;;;17.10;73.60;;;;;;5020207;28;20045;-72
2021/05/11 11:31:55;;;;;;;5.57;1.88;;;17.00;77.90;;;;;;5020510;28;20357;-72
2021/05/11 11:34:33;;;;;;;2.20;1.23;;;16.70;77.50;;;;;;5020083;28;20022;-72
2021/05/11 11:36:59;;;;;;;4.38;1.60;;;16.50;76.90;;;;;;5020429;28;20034;-72
2021/05/11 11:39:29;;;;;;;5.15;1.35;;;16.20;76.80;;;;;;5020357;28;20101;-72
2021/05/11 11:41:57;;;;;;;2.35;1.40;;;16.00;76.30;;;;;;5020004;28;20064;-72
2021/05/11 11:44:25;;;;;;;2.70;1.27;;;15.90;76.80;;;;;;5019890;28;20022;-72
2021/05/11 11:46:56;;;;;;;3.78;1.23;;;15.80;77.70;;;;;;5020151;28;20053;-72
2021/05/11 11:49:25;;;;;;;6.70;0.93;;;15.80;78.50;;;;;;5020123;28;20120;-72
2021/05/11 11:52:19;;;;;;;4.85;0.73;;;15.80;73.70;;;;;;5020181;28;20022;-72
2021/05/11 12:00:19;;;;;;;4.72;0.93;;;16.10;75.30;;;;;;5019959;28;20056;-72
2021/05/11 12:03:04;;;;;;;2.90;0.90;;;15.70;75.70;;;;;;5019983;28;20069;-72
2021/05/11 12:05:38;;;;;;;3.53;0.70;;;15.50;79.30;;;;;;5019511;28;20026;-72
2021/05/11 12:10:42;;;;;;;3.47;0.70;;;15.30;79.30;;;;;;5020059;28;20080;-72
2021/05/11 12:13:10;;;;;;;2.45;0.90;;;15.20;79.80;;;;;;5019808;28;20378;-72
2021/05/11 12:15:36;;;;;;;3.17;0.80;;;15.20;81.80;;;;;;5019322;28;20029;-72
2021/05/11 12:18:19;;;;;;;2.22;0.80;;;15.10;80.40;;;;;;5019663;28;20339;-72
2021/05/11 12:20:46;;;;;;;2.15;0.80;;;15.20;79.70;;;;;;5019598;28;20304;-72
2021/05/11 12:23:18;;;;;;;3.72;1.20;;;15.20;79.40;;;;;;5019585;28;20109;-72
2021/05/11 12:25:57;;;;;;;1.92;0.80;;;15.40;77.90;;;;;;5018884;28;20447;-72
2021/05/11 12:28:40;;;;;;;1.65;0.60;;;15.50;79.10;;;;;;5019055;28;20407;-72
2021/05/11 12:31:08;;;;;;;1.45;0.80;;;15.90;76.80;;;;;;5018621;28;20425;-72
2021/05/11 12:33:44;;;;;;;1.80;0.60;;;16.10;75.80;;;;;;5019175;28;20052;-72
2021/05/11 12:36:23;;;;;;;2.08;0.88;;;16.40;76.00;;;;;;5019589;28;20022;-72
2021/05/11 12:38:50;;;;;;;2.60;1.00;;;16.70;76.70;;;;;;5019302;28;20094;-72
2021/05/11 12:41:32;;;;;;;5.00;1.52;;;17.00;76.00;;;;;;5018834;28;20105;-72
2021/05/11 12:44:00;;;;;;;4.03;1.13;;;17.40;75.80;;;;;;5018833;28;20422;-72
2021/05/11 12:46:31;;;;;;;4.43;1.83;;;17.70;74.40;;;;;;5018724;28;20032;-72
2021/05/11 12:49:15;;;;;;;3.92;2.03;;;18.00;74.60;;;;;;5019144;28;20030;-72
2021/05/11 12:51:44;;;;;;;5.45;1.95;;;18.20;77.20;;;;;;5019074;28;20030;-72
2021/05/11 12:54:31;;;;;;;4.35;1.40;;;18.60;76.40;;;;;;5018922;28;20093;-71
2021/05/11 12:57:08;;;;;;;;;;;;;;;;;;;;;
2021/05/11 13:16:33;;;;;;;5.15;1.73;;;17.90;74.30;;;;;;5018317;28;20089;-72
2021/05/11 13:27:06;;;;;;;2.88;1.45;;;17.40;73.80;;;;;;5018012;28;20053;-72
2021/05/11 13:32:13;;;;;;;4.45;1.30;;;17.40;76.60;;;;;;5018388;28;20430;-73
2021/05/11 13:34:38;;;;;;;3.70;1.25;;;17.60;76.80;;;;;;5018198;28;20056;-72
2021/05/11 13:37:04;;;;;;;3.70;1.15;;;17.70;76.10;;;;;;5018120;28;20030;-72
2021/05/11 13:39:30;;;;;;;2.13;0.90;;;17.80;73.60;;;;;;5018126;28;20030;-73
2021/05/11 13:41:55;;;;;;;5.97;1.60;;;17.70;72.90;;;;;;5018135;28;20026;-72
2021/05/11 13:44:21;;;;;;;3.75;1.00;;;17.70;75.00;;;;;;5017015;28;20480;-72
2021/05/11 13:46:47;;;;;;;3.53;1.02;;;17.70;71.70;;;;;;5017904;28;20022;-72
2021/05/11 13:49:15;;;;;;;3.95;0.77;;;17.80;73.30;;;;;;5017680;28;20077;-72
2021/05/11 13:51:41;;;;;;;3.70;0.90;;;18.00;73.20;;;;;;5017637;28;20021;-73
2021/05/11 13:54:09;;;;;;;2.38;0.82;;;18.10;72.10;;;;;;5017750;28;20084;-72
2021/05/11 14:02:32;;;;;;;3.95;1.83;;;18.00;69.20;;;;;;5017825;28;20441;-72
2021/05/11 14:04:36;;;;;;;5.90;2.03;;;18.20;71.70;;;;;;5017146;28;20045;-70
2021/05/11 14:07:03;;;;;;;6.88;1.73;;;18.30;74.70;;;;;;5017599;28;20030;-72
2021/05/11 14:09:28;;;;;;;3.65;1.60;;;18.30;72.80;;;;;;5017590;28;20077;-72
2021/05/11 14:11:54;;;;;;;6.35;2.47;;;18.20;77.10;;;;;;5017324;28;20022;-72
2021/05/11 14:14:20;;;;;;;5.90;3.10;;;18.20;76.00;;;;;;5017513;28;20030;-73
2021/05/11 14:16:47;;;;;;;8.85;2.83;;;18.10;78.10;;;;;;5017496;28;20410;-72
2021/05/11 14:19:14;;;;;;;4.60;2.30;;;17.80;80.70;;;;;;5017441;28;20303;-72
2021/05/11 14:21:41;;;;;;;5.35;2.75;;;17.60;83.90;;;;;;5017464;28;20030;-72
2021/05/11 14:24:07;;;;;;;3.03;1.80;;;17.50;84.30;;;;;;5017051;28;20042;-73
2021/05/11 14:26:33;;;;;;;4.70;1.88;;;17.40;82.90;;;;;;5016724;28;20192;-72
2021/05/11 14:28:59;;;;;;;6.82;2.00;;;17.20;82.80;;;;;;5017356;28;20030;-72
2021/05/11 14:31:26;;;;;;;3.15;1.70;;;17.10;82.10;;;;;;5017032;28;20026;-72
2021/05/11 14:33:52;;;;;;;2.85;1.80;;;16.80;80.00;;;;;;5016929;28;20052;-72
2021/05/11 14:36:17;;;;;;;4.53;2.00;;;16.50;81.10;;;;;;5016944;28;20026;-72
2021/05/11 14:38:43;;;;;;;6.78;1.65;;;16.30;80.10;;;;;;5017261;28;20030;-72
2021/05/11 14:41:10;;;;;;;10.82;2.10;;;16.20;82.10;;;;;;5016907;28;20030;-72
2021/05/11 14:43:38;;;;;;;7.32;1.95;;;16.20;79.10;;;;;;5016857;28;20414;-72
2021/05/11 14:46:05;;;;;;;3.17;1.38;;;16.30;78.70;;;;;;5016854;28;20370;-72
2021/05/11 14:48:31;;;;;;;5.13;1.27;;;16.40;76.80;;;;;;5016823;28;20034;-72
2021/05/11 14:50:58;;;;;;;4.07;1.40;;;16.50;74.90;;;;;;5016798;28;20049;-72
2021/05/11 14:53:24;;;;;;;5.45;1.30;;;16.60;72.00;;;;;;5017131;28;20100;-72
2021/05/11 14:55:52;;;;;;;4.00;1.42;;;16.70;74.20;;;;;;5019815;28;20060;-72
2021/05/11 14:58:17;;;;;;;5.20;1.90;;;16.80;75.80;;;;;;5021128;28;20060;-72
2021/05/11 15:00:43;;;;;;;2.35;1.02;;;16.80;75.60;;;;;;5020758;28;20481;-72
2021/05/11 15:03:13;;;;;;;5.43;1.27;;;16.70;73.60;;;;;;5021113;28;20030;-72
2021/05/11 15:05:39;;;;;;;2.58;1.08;;;16.70;77.60;;;;;;5020633;28;20096;-72
2021/05/11 15:08:07;;;;;;;1.98;1.02;;;16.80;76.50;;;;;;5020530;28;20080;-72
2021/05/11 15:10:34;;;;;;;2.60;1.02;;;16.70;74.70;;;;;;5020586;28;20102;-72
2021/05/11 15:13:00;;;;;;;3.40;1.27;;;16.70;75.90;;;;;;5020649;28;20044;-72
2021/05/11 15:15:27;;;;;;;4.63;1.30;;;16.70;78.30;;;;;;5020737;28;20041;-72
2021/05/11 15:20:20;;;;;;;2.75;1.20;;;16.70;75.70;;;;;;5020763;28;20066;-72
2021/05/11 15:22:51;;;;;;;3.30;1.30;;;16.70;75.30;;;;;;5020730;28;20036;-72
2021/05/11 15:25:17;;;;;;;3.70;1.70;;;16.80;74.80;;;;;;5020043;28;20077;-72
2021/05/11 15:27:43;;;;;;;5.45;1.10;;;16.80;74.80;;;;;;5020286;28;20030;-72
2021/05/11 15:30:09;;;;;;;4.28;1.58;;;16.90;75.20;;;;;;5020529;28;20072;-72
2021/05/11 15:32:56;;;;;;;3.58;1.20;;;16.90;76.50;;;;;;5020488;28;20330;-72
2021/05/11 15:35:35;;;;;;;3.80;1.00;;;16.90;74.40;;;;;;5020020;28;20032;-72
2021/05/11 15:38:03;;;;;;;1.85;1.00;;;16.80;75.00;;;;;;5020116;28;20311;-72
2021/05/11 15:40:33;;;;;;;3.10;1.05;;;16.80;75.80;;;;;;5020314;28;20033;-72
2021/05/11 15:42:59;;;;;;;5.75;1.30;;;16.70;74.80;;;;;;5020382;28;20322;-72
2021/05/11 15:45:26;;;;;;;3.00;1.00;;;16.70;74.30;;;;;;5020231;28;20105;-72
2021/05/11 15:48:01;;;;;;;3.10;1.10;;;16.70;75.90;;;;;;5019837;28;20034;-72
2021/05/11 15:50:32;;;;;;;4.68;1.08;;;16.70;75.70;;;;;;5020224;28;20026;-72
2021/05/11 15:53:02;;;;;;;3.67;1.20;;;16.60;75.70;;;;;;5019907;28;20033;-72
2021/05/11 15:55:30;;;;;;;2.95;1.42;;;16.50;77.00;;;;;;5019630;28;20026;-72
2021/05/11 15:57:56;;;;;;;3.35;1.40;;;16.30;77.90;;;;;;5020010;28;20080;-72
2021/05/11 16:00:22;;;;;;;5.15;2.22;;;16.20;80.20;;;;;;5019946;28;20110;-72
2021/05/11 16:02:48;;;;;;;6.22;2.72;;;16.20;81.80;;;;;;5019957;28;20426;-72
2021/05/11 16:05:19;;;;;;;5.22;2.30;;;16.10;83.30;;;;;;5019537;28;20030;-72
2021/05/11 16:07:46;;;;;;;1.73;1.02;;;16.20;83.30;;;;;;5018701;28;20041;-72
2021/05/11 16:10:12;;;;;;;2.35;1.08;;;16.20;79.90;;;;;;5019485;28;20415;-72
2021/05/11 16:12:38;;;;;;;1.75;0.80;;;16.30;78.20;;;;;;5019809;28;20041;-72
2021/05/11 16:15:09;;;;;;;3.67;0.95;;;16.30;76.70;;;;;;5019582;28;20369;-72
2021/05/11 16:17:35;;;;;;;9.13;0.98;;;16.50;75.90;;;;;;5019378;28;20054;-72
2021/05/11 16:20:01;;;;;;;3.53;1.23;;;16.60;73.90;;;;;;5019640;28;20076;-72
2021/05/11 16:22:26;;;;;;;3.20;0.93;;;16.70;74.20;;;;;;5019320;28;20025;-72
2021/05/11 16:24:53;;;;;;;3.65;1.10;;;16.80;78.00;;;;;;5019356;28;20112;-72
2021/05/11 16:27:19;;;;;;;3.17;1.15;;;16.90;78.90;;;;;;5018960;28;20053;-72
2021/05/11 16:29:45;;;;;;;6.05;1.88;;;16.80;80.20;;;;;;5019411;28;20025;-72
2021/05/11 16:32:12;;;;;;;5.00;1.95;;;16.80;78.80;;;;;;5019190;28;20421;-72
2021/05/11 16:34:39;;;;;;;5.85;1.73;;;16.80;80.00;;;;;;5019023;28;20026;-72
2021/05/11 16:37:06;;;;;;;4.85;2.30;;;16.70;79.60;;;;;;5019326;28;20108;-72
2021/05/11 16:39:32;;;;;;;3.05;1.63;;;16.50;82.30;;;;;;5018958;28;20109;-72
2021/05/11 16:41:58;;;;;;;9.70;2.20;;;16.40;80.50;;;;;;5019248;28;20109;-72
2021/05/11 16:44:24;;;;;;;4.40;1.98;;;16.30;81.90;;;;;;5019139;28;20303;-72
2021/05/11 16:46:50;;;;;;;6.50;3.15;;;16.20;84.00;;;;;;5019069;28;20402;-72
2021/05/11 16:49:16;;;;;;;11.63;4.38;;;16.00;85.80;;;;;;5019112;28;20124;-72
2021/05/11 16:51:41;;;;;;;9.70;3.40;;;16.00;86.90;;;;;;5018755;28;20030;-72
2021/05/11 16:54:07;;;;;;;6.47;3.45;;;15.80;87.80;;;;;;5018968;28;20029;-72
2021/05/11 16:56:33;;;;;;;7.47;4.18;;;15.70;89.20;;;;;;5019064;28;20080;-72
2021/05/11 16:58:59;;;;;;;8.95;3.60;;;15.60;91.20;;;;;;5018583;28;20037;-72
2021/05/11 17:01:24;;;;;;;5.68;3.35;;;15.50;90.60;;;;;;5018575;28;20026;-72
2021/05/11 17:03:50;;;;;;;7.72;3.90;;;15.50;90.30;;;;;;5018816;28;20112;-72
2021/05/11 17:06:16;;;;;;;7.03;3.35;;;15.30;91.20;;;;;;5018486;28;20108;-72
2021/05/11 17:08:41;;;;;;;9.82;4.20;;;15.20;92.30;;;;;;5018316;28;20037;-72
2021/05/11 17:11:07;;;;;;;13.10;5.13;;;15.10;92.80;;;;;;5033830;28;20121;-72
2021/05/11 17:13:38;;;;;;;11.00;4.80;;;15.00;95.00;;;;;;5018601;28;20405;-72
2021/05/11 17:16:05;;;;;;;10.38;6.00;;;14.90;96.00;;;;;;5018658;28;20034;-72
2021/05/11 17:18:31;;;;;;;13.45;5.65;;;14.80;96.60;;;;;;5018295;28;20116;-73
2021/05/11 17:20:57;;;;;;;15.45;5.85;;;14.80;97.10;;;;;;5018515;28;20133;-73